createdAt,value
2016-06-25T00:00:50.144Z,0
2016-06-25T00:01:48.292Z,0
2016-06-25T00:02:49.179Z,0
2016-06-25T00:03:48.291Z,0
2016-06-25T00:04:48.926Z,0
2016-06-25T00:05:47.687Z,0
2016-06-25T00:06:48.299Z,0
2016-06-25T00:07:48.919Z,0
2016-06-25T00:08:48.907Z,0
2016-06-25T00:09:50.432Z,0
2016-06-25T00:10:49.539Z,0
2016-06-25T00:11:50.033Z,0
2016-06-25T00:12:48.999Z,0
2016-06-25T00:13:49.307Z,0
2016-06-25T00:14:48.983Z,0
2016-06-25T00:15:48.967Z,0
2016-06-25T00:16:49.605Z,0
2016-06-25T00:17:48.997Z,0
2016-06-25T00:18:48.362Z,0
2016-06-25T00:19:48.983Z,0
2016-06-25T00:20:48.999Z,0
2016-06-25T00:21:48.995Z,0
2016-06-25T00:22:47.777Z,0
2016-06-25T00:23:47.151Z,0
2016-06-25T00:24:49.481Z,0
2016-06-25T00:25:49.668Z,0
2016-06-25T00:26:49.007Z,0
2016-06-25T00:27:48.400Z,0
2016-06-25T00:28:49.049Z,0
2016-06-25T00:29:49.070Z,0
2016-06-25T00:30:48.414Z,0
2016-06-25T00:31:50.619Z,0
2016-06-25T00:32:49.050Z,0
2016-06-25T00:33:50.561Z,0
2016-06-25T00:34:49.054Z,0
2016-06-25T00:35:49.687Z,0
2016-06-25T00:36:49.053Z,0
2016-06-25T00:37:49.095Z,0
2016-06-25T00:38:48.465Z,0
2016-06-25T00:39:49.703Z,0
2016-06-25T00:40:49.076Z,0
2016-06-25T00:41:49.086Z,0
2016-06-25T00:42:48.453Z,0
2016-06-25T00:43:49.707Z,0
2016-06-25T00:44:48.482Z,0
2016-06-25T00:45:48.476Z,0
2016-06-25T00:46:47.884Z,0
2016-06-25T00:47:48.493Z,0
2016-06-25T00:48:49.751Z,0
2016-06-25T00:49:48.503Z,0
2016-06-25T00:50:48.529Z,0
2016-06-25T00:51:49.123Z,0
2016-06-25T00:52:49.762Z,0
2016-06-25T00:53:48.458Z,0
2016-06-25T00:54:49.176Z,0
2016-06-25T00:55:50.119Z,0
2016-06-25T00:56:49.984Z,0
2016-06-25T00:57:49.879Z,0
2016-06-25T00:58:49.777Z,0
2016-06-25T00:59:49.193Z,0
2016-06-25T01:00:49.185Z,0
2016-06-25T01:01:49.197Z,0
2016-06-25T01:02:49.238Z,0
2016-06-25T01:03:48.566Z,0
2016-06-25T01:04:49.460Z,0
2016-06-25T01:05:49.217Z,0
2016-06-25T01:06:49.226Z,0
2016-06-25T01:07:47.998Z,0
2016-06-25T01:08:50.231Z,0
2016-06-25T01:09:49.861Z,0
2016-06-25T01:10:49.212Z,0
2016-06-25T01:11:49.238Z,0
2016-06-25T01:12:49.855Z,0
2016-06-25T01:13:47.442Z,0
2016-06-25T01:14:48.612Z,0
2016-06-25T01:15:50.056Z,0
2016-06-25T01:16:49.243Z,0
2016-06-25T01:17:49.256Z,0
2016-06-25T01:18:49.911Z,0
2016-06-25T01:19:50.277Z,0
2016-06-25T01:20:49.278Z,0
2016-06-25T01:21:49.889Z,0
2016-06-25T01:22:48.672Z,0
2016-06-25T01:23:49.317Z,0
2016-06-25T01:24:48.699Z,0
2016-06-25T01:25:49.924Z,0
2016-06-25T01:26:49.459Z,0
2016-06-25T01:27:49.945Z,0
2016-06-25T01:28:51.311Z,0
2016-06-25T01:29:49.310Z,0
2016-06-25T01:30:48.069Z,0
2016-06-25T01:31:49.934Z,0
2016-06-25T01:32:49.325Z,0
2016-06-25T01:33:49.949Z,0
2016-06-25T01:34:49.361Z,0
2016-06-25T01:35:49.340Z,0
2016-06-25T01:36:49.330Z,0
2016-06-25T01:37:48.978Z,0
2016-06-25T01:38:49.352Z,0
2016-06-25T01:39:48.757Z,0
2016-06-25T01:40:48.739Z,0
2016-06-25T01:41:50.417Z,0
2016-06-25T01:42:48.768Z,0
2016-06-25T01:43:49.438Z,0
2016-06-25T01:44:49.995Z,0
2016-06-25T01:45:48.789Z,0
2016-06-25T01:46:49.993Z,0
2016-06-25T01:47:48.799Z,0
2016-06-25T01:48:49.845Z,0
2016-06-25T01:49:48.169Z,0
2016-06-25T01:50:50.914Z,0
2016-06-25T01:51:48.823Z,0
2016-06-25T01:52:49.420Z,0
2016-06-25T01:53:48.175Z,0
2016-06-25T01:54:49.418Z,0
2016-06-25T01:55:48.822Z,0
2016-06-25T01:56:50.104Z,0
2016-06-25T01:57:48.346Z,0
2016-06-25T01:58:49.458Z,0
2016-06-25T01:59:50.532Z,0
2016-06-25T02:00:49.455Z,0
2016-06-25T02:01:49.025Z,0
2016-06-25T02:02:49.480Z,0
2016-06-25T02:03:49.443Z,0
2016-06-25T02:04:48.843Z,0
2016-06-25T02:05:48.832Z,0
2016-06-25T02:06:49.516Z,0
2016-06-25T02:07:49.487Z,0
2016-06-25T02:08:49.521Z,0
2016-06-25T02:09:49.522Z,0
2016-06-25T02:10:49.474Z,0
2016-06-25T02:11:49.494Z,0
2016-06-25T02:12:49.713Z,0
2016-06-25T02:13:49.551Z,0
2016-06-25T02:14:49.518Z,0
2016-06-25T02:15:49.546Z,0
2016-06-25T02:16:48.889Z,0
2016-06-25T02:17:49.533Z,0
2016-06-25T02:18:48.901Z,0
2016-06-25T02:19:49.529Z,0
2016-06-25T02:20:48.918Z,0
2016-06-25T02:21:50.514Z,0
2016-06-25T02:22:48.924Z,0
2016-06-25T02:23:51.536Z,0
2016-06-25T02:24:50.190Z,0
2016-06-25T02:25:48.953Z,0
2016-06-25T02:26:49.568Z,0
2016-06-25T02:27:48.947Z,0
2016-06-25T02:28:49.595Z,0
2016-06-25T02:29:50.203Z,0
2016-06-25T02:30:49.577Z,0
2016-06-25T02:31:50.221Z,0
2016-06-25T02:32:51.158Z,0
2016-06-25T02:33:49.606Z,0
2016-06-25T02:34:51.663Z,0
2016-06-25T02:35:50.214Z,0
2016-06-25T02:36:49.000Z,0
2016-06-25T02:37:49.633Z,0
2016-06-25T02:38:48.989Z,0
2016-06-25T02:39:49.613Z,0
2016-06-25T02:40:49.617Z,0
2016-06-25T02:41:49.644Z,0
2016-06-25T02:42:49.051Z,0
2016-06-25T02:43:50.754Z,0
2016-06-25T02:44:50.295Z,0
2016-06-25T02:45:49.799Z,0
2016-06-25T02:46:49.041Z,0
2016-06-25T02:47:48.418Z,0
2016-06-25T02:48:50.281Z,0
2016-06-25T02:49:49.678Z,0
2016-06-25T02:50:48.459Z,0
2016-06-25T02:51:49.055Z,0
2016-06-25T02:52:49.063Z,0
2016-06-25T02:53:50.329Z,0
2016-06-25T02:54:51.022Z,0
2016-06-25T02:55:50.313Z,0
2016-06-25T02:56:49.962Z,0
2016-06-25T02:57:50.428Z,0
2016-06-25T02:58:49.755Z,0
2016-06-25T02:59:49.723Z,0
2016-06-25T03:00:50.322Z,0
2016-06-25T03:01:49.729Z,0
2016-06-25T03:02:49.106Z,0
2016-06-25T03:03:50.397Z,0
2016-06-25T03:04:49.095Z,0
2016-06-25T03:05:50.516Z,0
2016-06-25T03:06:48.503Z,0
2016-06-25T03:07:50.618Z,0
2016-06-25T03:08:49.162Z,0
2016-06-25T03:09:49.755Z,0
2016-06-25T03:10:49.187Z,0
2016-06-25T03:11:49.762Z,0
2016-06-25T03:12:49.157Z,0
2016-06-25T03:13:50.395Z,0
2016-06-25T03:14:49.791Z,0
2016-06-25T03:15:48.855Z,0
2016-06-25T03:16:51.884Z,0
2016-06-25T03:17:48.853Z,0
2016-06-25T03:18:50.210Z,0
2016-06-25T03:19:48.666Z,0
2016-06-25T03:20:49.563Z,0
2016-06-25T03:21:50.040Z,0
2016-06-25T03:22:49.844Z,0
2016-06-25T03:23:49.194Z,0
2016-06-25T03:24:48.578Z,0
2016-06-25T03:25:49.847Z,0
2016-06-25T03:26:49.828Z,0
2016-06-25T03:27:51.250Z,0
2016-06-25T03:28:50.471Z,0
2016-06-25T03:29:50.706Z,0
2016-06-25T03:30:49.862Z,0
2016-06-25T03:31:50.469Z,0
2016-06-25T03:32:49.850Z,0
2016-06-25T03:33:49.883Z,0
2016-06-25T03:34:50.506Z,0
2016-06-25T03:35:49.268Z,0
2016-06-25T03:36:49.899Z,0
2016-06-25T03:37:49.880Z,0
2016-06-25T03:38:50.644Z,0
2016-06-25T03:39:49.886Z,0
2016-06-25T03:40:50.531Z,0
2016-06-25T03:41:49.946Z,0
2016-06-25T03:42:50.494Z,0
2016-06-25T03:43:49.279Z,0
2016-06-25T03:44:49.893Z,0
2016-06-25T03:45:50.539Z,0
2016-06-25T03:46:50.535Z,0
2016-06-25T03:47:49.294Z,0
2016-06-25T03:48:48.683Z,0
2016-06-25T03:49:48.949Z,0
2016-06-25T03:50:50.553Z,0
2016-06-25T03:51:50.809Z,0
2016-06-25T03:52:49.951Z,0
2016-06-25T03:53:49.939Z,0
2016-06-25T03:54:50.589Z,0
2016-06-25T03:55:50.591Z,0
2016-06-25T03:56:50.575Z,0
2016-06-25T03:57:50.022Z,0
2016-06-25T03:58:50.072Z,0
2016-06-25T03:59:49.362Z,0
2016-06-25T04:00:51.446Z,0
2016-06-25T04:01:50.603Z,0
2016-06-25T04:02:48.891Z,0
2016-06-25T04:03:49.575Z,0
2016-06-25T04:04:50.625Z,0
2016-06-25T04:05:49.387Z,0
2016-06-25T04:06:49.998Z,0
2016-06-25T04:07:49.374Z,0
2016-06-25T04:08:50.624Z,0
2016-06-25T04:09:50.003Z,0
2016-06-25T04:10:49.391Z,0
2016-06-25T04:11:51.809Z,0
2016-06-25T04:12:49.409Z,0
2016-06-25T04:13:50.054Z,0
2016-06-25T04:14:49.402Z,0
2016-06-25T04:15:50.679Z,0
2016-06-25T04:16:48.814Z,0
2016-06-25T04:17:48.819Z,0
2016-06-25T04:18:49.463Z,0
2016-06-25T04:19:50.685Z,0
2016-06-25T04:20:50.135Z,0
2016-06-25T04:21:50.080Z,0
2016-06-25T04:22:50.638Z,0
2016-06-25T04:23:50.089Z,0
2016-06-25T04:24:49.456Z,0
2016-06-25T04:25:49.459Z,0
2016-06-25T04:26:48.243Z,0
2016-06-25T04:27:50.727Z,0
2016-06-25T04:28:50.714Z,0
2016-06-25T04:29:49.486Z,0
2016-06-25T04:30:50.717Z,0
2016-06-25T04:31:50.123Z,0
2016-06-25T04:32:50.106Z,0
2016-06-25T04:33:50.496Z,0
2016-06-25T04:34:49.491Z,0
2016-06-25T04:35:50.149Z,0
2016-06-25T04:36:50.769Z,0
2016-06-25T04:37:50.753Z,0
2016-06-25T04:38:50.161Z,0
2016-06-25T04:39:50.775Z,0
2016-06-25T04:40:49.562Z,0
2016-06-25T04:41:50.138Z,0
2016-06-25T04:42:50.164Z,0
2016-06-25T04:43:50.212Z,0
2016-06-25T04:44:51.409Z,0
2016-06-25T04:45:48.944Z,0
2016-06-25T04:46:50.476Z,0
2016-06-25T04:47:50.167Z,0
2016-06-25T04:48:49.539Z,0
2016-06-25T04:49:50.199Z,0
2016-06-25T04:50:50.788Z,0
2016-06-25T04:51:50.194Z,0
2016-06-25T04:52:50.189Z,0
2016-06-25T04:53:50.226Z,0
2016-06-25T04:54:49.574Z,0
2016-06-25T04:55:51.206Z,0
2016-06-25T04:56:50.800Z,0
2016-06-25T04:57:51.363Z,0
2016-06-25T04:58:50.339Z,0
2016-06-25T04:59:50.263Z,0
2016-06-25T05:00:48.987Z,0
2016-06-25T05:01:50.226Z,0
2016-06-25T05:02:50.216Z,0
2016-06-25T05:03:50.303Z,0
2016-06-25T05:04:49.626Z,0
2016-06-25T05:05:50.859Z,0
2016-06-25T05:06:49.634Z,0
2016-06-25T05:07:49.628Z,0
2016-06-25T05:08:51.311Z,0
2016-06-25T05:09:50.250Z,0
2016-06-25T05:10:49.010Z,0
2016-06-25T05:11:49.675Z,0
2016-06-25T05:12:50.271Z,0
2016-06-25T05:13:49.045Z,0
2016-06-25T05:14:50.273Z,0
2016-06-25T05:15:50.612Z,0
2016-06-25T05:16:50.907Z,0
2016-06-25T05:17:49.671Z,0
2016-06-25T05:18:50.914Z,0
2016-06-25T05:19:51.046Z,0
2016-06-25T05:20:50.307Z,0
2016-06-25T05:21:49.698Z,0
2016-06-25T05:22:49.687Z,0
2016-06-25T05:23:49.675Z,0
2016-06-25T05:24:50.314Z,0
2016-06-25T05:25:49.705Z,0
2016-06-25T05:26:51.012Z,0
2016-06-25T05:27:50.961Z,0
2016-06-25T05:28:50.359Z,0
2016-06-25T05:29:50.337Z,0
2016-06-25T05:30:51.599Z,0
2016-06-25T05:31:50.984Z,0
2016-06-25T05:32:50.359Z,0
2016-06-25T05:33:50.979Z,0
2016-06-25T05:34:49.731Z,0
2016-06-25T05:35:50.395Z,0
2016-06-25T05:36:50.352Z,0
2016-06-25T05:37:50.806Z,0
2016-06-25T05:38:50.339Z,0
2016-06-25T05:39:50.827Z,0
2016-06-25T05:40:50.997Z,0
2016-06-25T05:41:49.779Z,0
2016-06-25T05:42:50.386Z,0
2016-06-25T05:43:48.547Z,0
2016-06-25T05:44:50.412Z,0
2016-06-25T05:45:49.791Z,0
2016-06-25T05:46:49.133Z,0
2016-06-25T05:47:50.398Z,0
2016-06-25T05:48:49.793Z,0
2016-06-25T05:49:49.784Z,0
2016-06-25T05:50:50.449Z,0
2016-06-25T05:51:50.439Z,0
2016-06-25T05:52:50.574Z,0
2016-06-25T05:53:50.416Z,0
2016-06-25T05:54:50.418Z,0
2016-06-25T05:55:51.053Z,0
2016-06-25T05:56:51.045Z,0
2016-06-25T05:57:48.623Z,0
2016-06-25T05:58:50.550Z,0
2016-06-25T05:59:50.459Z,0
2016-06-25T06:00:50.455Z,0
2016-06-25T06:01:51.411Z,0
2016-06-25T06:02:50.469Z,0
2016-06-25T06:03:51.158Z,0
2016-06-25T06:04:50.483Z,0
2016-06-25T06:05:49.872Z,0
2016-06-25T06:06:49.881Z,0
2016-06-25T06:07:50.485Z,0
2016-06-25T06:08:50.482Z,0
2016-06-25T06:09:49.265Z,0
2016-06-25T06:10:49.891Z,0
2016-06-25T06:11:50.503Z,0
2016-06-25T06:12:50.878Z,0
2016-06-25T06:13:49.924Z,0
2016-06-25T06:14:51.216Z,0
2016-06-25T06:15:50.528Z,0
2016-06-25T06:16:51.153Z,0
2016-06-25T06:17:50.522Z,0
2016-06-25T06:18:50.539Z,0
2016-06-25T06:19:49.310Z,0
2016-06-25T06:20:51.165Z,0
2016-06-25T06:21:50.771Z,0
2016-06-25T06:22:50.564Z,0
2016-06-25T06:23:49.950Z,0
2016-06-25T06:24:50.576Z,0
2016-06-25T06:25:51.283Z,0
2016-06-25T06:26:50.596Z,0
2016-06-25T06:27:50.576Z,0
2016-06-25T06:28:50.587Z,0
2016-06-25T06:29:50.593Z,0
2016-06-25T06:30:48.777Z,0
2016-06-25T06:31:50.624Z,0
2016-06-25T06:32:49.995Z,0
2016-06-25T06:33:50.614Z,0
2016-06-25T06:34:52.495Z,0
2016-06-25T06:35:50.642Z,0
2016-06-25T06:36:51.584Z,0
2016-06-25T06:37:50.046Z,0
2016-06-25T06:38:50.042Z,0
2016-06-25T06:39:50.678Z,0
2016-06-25T06:40:50.643Z,0
2016-06-25T06:41:51.290Z,0
2016-06-25T06:42:51.277Z,0
2016-06-25T06:43:50.910Z,0
2016-06-25T06:44:50.299Z,0
2016-06-25T06:45:50.670Z,0
2016-06-25T06:46:50.702Z,0
2016-06-25T06:47:51.876Z,0
2016-06-25T06:48:50.706Z,0
2016-06-25T06:49:50.709Z,0
2016-06-25T06:50:50.080Z,0
2016-06-25T06:51:50.139Z,0
2016-06-25T06:52:50.710Z,0
2016-06-25T06:53:50.755Z,5
2016-06-25T06:54:51.385Z,5
2016-06-25T06:55:50.732Z,5
2016-06-25T06:56:50.431Z,5
2016-06-25T06:57:49.516Z,5
2016-06-25T06:58:50.130Z,5
2016-06-25T06:59:50.203Z,5
2016-06-25T07:00:50.771Z,5
2016-06-25T07:01:50.183Z,5
2016-06-25T07:02:50.754Z,5
2016-06-25T07:03:50.775Z,5
2016-06-25T07:04:50.170Z,5
2016-06-25T07:05:51.486Z,5
2016-06-25T07:06:50.173Z,5
2016-06-25T07:07:50.566Z,5
2016-06-25T07:08:49.579Z,0
2016-06-25T07:09:52.449Z,0
2016-06-25T07:10:51.428Z,0
2016-06-25T07:11:50.847Z,0
2016-06-25T07:12:50.822Z,0
2016-06-25T07:13:50.803Z,0
2016-06-25T07:14:49.586Z,0
2016-06-25T07:15:50.822Z,0
2016-06-25T07:16:52.356Z,0
2016-06-25T07:17:51.475Z,0
2016-06-25T07:18:51.336Z,0
2016-06-25T07:19:51.457Z,0
2016-06-25T07:20:50.250Z,0
2016-06-25T07:21:51.490Z,0
2016-06-25T07:22:50.860Z,0
2016-06-25T07:23:50.858Z,0
2016-06-25T07:24:50.901Z,5
2016-06-25T07:25:50.261Z,5
2016-06-25T07:26:50.255Z,5
2016-06-25T07:27:50.923Z,5
2016-06-25T07:28:50.879Z,5
2016-06-25T07:29:51.883Z,5
2016-06-25T07:30:51.520Z,5
2016-06-25T07:31:51.528Z,5
2016-06-25T07:32:50.926Z,5
2016-06-25T07:33:50.919Z,5
2016-06-25T07:34:49.685Z,5
2016-06-25T07:35:50.322Z,5
2016-06-25T07:36:50.930Z,5
2016-06-25T07:37:50.332Z,5
2016-06-25T07:38:51.746Z,5
2016-06-25T07:39:51.555Z,5
2016-06-25T07:40:53.601Z,5
2016-06-25T07:41:50.966Z,5
2016-06-25T07:42:51.442Z,5
2016-06-25T07:43:50.342Z,5
2016-06-25T07:44:51.591Z,5
2016-06-25T07:45:50.371Z,5
2016-06-25T07:46:50.353Z,5
2016-06-25T07:47:50.981Z,5
2016-06-25T07:48:51.032Z,10
2016-06-25T07:49:51.010Z,10
2016-06-25T07:50:51.607Z,10
2016-06-25T07:51:52.131Z,10
2016-06-25T07:52:49.755Z,10
2016-06-25T07:53:51.137Z,10
2016-06-25T07:54:51.003Z,10
2016-06-25T07:55:51.633Z,10
2016-06-25T07:56:51.014Z,10
2016-06-25T07:57:51.032Z,10
2016-06-25T07:58:51.030Z,10
2016-06-25T07:59:50.521Z,10
2016-06-25T08:00:51.188Z,10
2016-06-25T08:01:50.475Z,10
2016-06-25T08:02:50.419Z,10
2016-06-25T08:03:50.449Z,10
2016-06-25T08:04:51.601Z,10
2016-06-25T08:05:50.447Z,10
2016-06-25T08:06:50.433Z,10
2016-06-25T08:07:50.463Z,10
2016-06-25T08:08:51.123Z,15
2016-06-25T08:09:50.464Z,15
2016-06-25T08:10:51.702Z,20
2016-06-25T08:11:51.991Z,15
2016-06-25T08:12:51.095Z,15
2016-06-25T08:13:51.704Z,15
2016-06-25T08:14:50.494Z,10
2016-06-25T08:15:52.074Z,10
2016-06-25T08:16:50.493Z,15
2016-06-25T08:17:51.148Z,10
2016-06-25T08:18:51.755Z,10
2016-06-25T08:19:51.771Z,10
2016-06-25T08:20:51.779Z,15
2016-06-25T08:21:49.902Z,15
2016-06-25T08:22:52.019Z,10
2016-06-25T08:23:51.212Z,10
2016-06-25T08:24:52.279Z,10
2016-06-25T08:25:51.861Z,10
2016-06-25T08:26:52.778Z,10
2016-06-25T08:27:51.303Z,15
2016-06-25T08:28:51.245Z,15
2016-06-25T08:29:50.579Z,15
2016-06-25T08:30:49.975Z,10
2016-06-25T08:31:50.578Z,10
2016-06-25T08:32:50.588Z,10
2016-06-25T08:33:52.891Z,15
2016-06-25T08:34:51.219Z,10
2016-06-25T08:35:51.301Z,10
2016-06-25T08:36:49.991Z,10
2016-06-25T08:37:51.234Z,10
2016-06-25T08:38:51.240Z,5
2016-06-25T08:39:51.228Z,5
2016-06-25T08:40:51.236Z,5
2016-06-25T08:41:51.258Z,5
2016-06-25T08:42:51.240Z,5
2016-06-25T08:43:50.664Z,5
2016-06-25T08:44:50.018Z,5
2016-06-25T08:45:51.258Z,5
2016-06-25T08:46:51.488Z,5
2016-06-25T08:47:51.604Z,5
2016-06-25T08:48:51.909Z,5
2016-06-25T08:49:51.911Z,5
2016-06-25T08:50:50.681Z,5
2016-06-25T08:51:51.296Z,5
2016-06-25T08:52:51.928Z,5
2016-06-25T08:53:50.719Z,5
2016-06-25T08:54:50.710Z,5
2016-06-25T08:55:52.306Z,10
2016-06-25T08:56:51.953Z,10
2016-06-25T08:57:50.695Z,10
2016-06-25T08:58:50.108Z,10
2016-06-25T08:59:51.866Z,10
2016-06-25T09:00:50.213Z,10
2016-06-25T09:01:51.398Z,15
2016-06-25T09:02:50.121Z,15
2016-06-25T09:03:51.338Z,15
2016-06-25T09:04:50.137Z,15
2016-06-25T09:05:51.387Z,15
2016-06-25T09:06:51.391Z,15
2016-06-25T09:07:50.165Z,15
2016-06-25T09:08:53.266Z,15
2016-06-25T09:09:51.380Z,15
2016-06-25T09:10:50.811Z,10
2016-06-25T09:11:50.195Z,10
2016-06-25T09:12:51.406Z,10
2016-06-25T09:13:50.822Z,10
2016-06-25T09:14:50.191Z,10
2016-06-25T09:15:50.821Z,10
2016-06-25T09:16:50.812Z,10
2016-06-25T09:17:52.346Z,10
2016-06-25T09:18:52.061Z,10
2016-06-25T09:19:51.452Z,10
2016-06-25T09:20:50.827Z,10
2016-06-25T09:21:52.607Z,10
2016-06-25T09:22:52.200Z,10
2016-06-25T09:23:52.180Z,15
2016-06-25T09:24:51.477Z,10
2016-06-25T09:25:50.867Z,10
2016-06-25T09:26:50.869Z,10
2016-06-25T09:27:50.252Z,10
2016-06-25T09:28:51.871Z,10
2016-06-25T09:29:52.117Z,10
2016-06-25T09:30:51.503Z,10
2016-06-25T09:31:51.526Z,10
2016-06-25T09:32:52.687Z,10
2016-06-25T09:33:51.549Z,10
2016-06-25T09:34:51.559Z,15
2016-06-25T09:35:52.150Z,10
2016-06-25T09:36:50.978Z,10
2016-06-25T09:37:51.547Z,10
2016-06-25T09:38:50.923Z,10
2016-06-25T09:39:52.098Z,10
2016-06-25T09:40:50.943Z,10
2016-06-25T09:41:51.586Z,10
2016-06-25T09:42:52.166Z,15
2016-06-25T09:43:52.201Z,15
2016-06-25T09:44:52.183Z,15
2016-06-25T09:45:51.577Z,15
2016-06-25T09:46:50.963Z,20
2016-06-25T09:47:50.364Z,20
2016-06-25T09:48:52.219Z,20
2016-06-25T09:49:51.033Z,20
2016-06-25T09:50:52.357Z,25
2016-06-25T09:51:52.305Z,20
2016-06-25T09:52:52.107Z,20
2016-06-25T09:53:52.262Z,20
2016-06-25T09:54:51.008Z,20
2016-06-25T09:55:51.032Z,20
2016-06-25T09:56:52.257Z,20
2016-06-25T09:57:51.014Z,20
2016-06-25T09:58:51.651Z,15
2016-06-25T09:59:51.022Z,15
2016-06-25T10:00:51.794Z,15
2016-06-25T10:01:52.940Z,15
2016-06-25T10:02:50.454Z,15
2016-06-25T10:03:54.417Z,15
2016-06-25T10:04:51.673Z,15
2016-06-25T10:05:52.312Z,15
2016-06-25T10:06:49.832Z,15
2016-06-25T10:07:51.070Z,10
2016-06-25T10:08:51.703Z,10
2016-06-25T10:09:51.079Z,10
2016-06-25T10:10:51.777Z,10
2016-06-25T10:11:51.737Z,15
2016-06-25T10:12:52.947Z,15
2016-06-25T10:13:52.341Z,15
2016-06-25T10:14:53.095Z,15
2016-06-25T10:15:51.748Z,15
2016-06-25T10:16:51.727Z,15
2016-06-25T10:17:51.135Z,15
2016-06-25T10:18:51.750Z,20
2016-06-25T10:19:52.353Z,20
2016-06-25T10:20:50.520Z,20
2016-06-25T10:21:51.163Z,20
2016-06-25T10:22:51.169Z,20
2016-06-25T10:23:51.158Z,20
2016-06-25T10:24:51.177Z,20
2016-06-25T10:25:53.031Z,20
2016-06-25T10:26:52.387Z,20
2016-06-25T10:27:51.819Z,20
2016-06-25T10:28:51.284Z,20
2016-06-25T10:29:51.795Z,20
2016-06-25T10:30:51.821Z,20
2016-06-25T10:31:51.829Z,20
2016-06-25T10:32:51.848Z,20
2016-06-25T10:33:52.431Z,20
2016-06-25T10:34:52.070Z,20
2016-06-25T10:35:51.199Z,20
2016-06-25T10:36:50.590Z,20
2016-06-25T10:37:51.241Z,20
2016-06-25T10:38:51.865Z,20
2016-06-25T10:39:51.850Z,20
2016-06-25T10:40:51.902Z,20
2016-06-25T10:41:51.232Z,20
2016-06-25T10:42:52.445Z,20
2016-06-25T10:43:51.850Z,20
2016-06-25T10:44:51.270Z,20
2016-06-25T10:45:52.492Z,20
2016-06-25T10:46:51.885Z,25
2016-06-25T10:47:53.815Z,25
2016-06-25T10:48:51.270Z,25
2016-06-25T10:49:51.295Z,25
2016-06-25T10:50:51.949Z,25
2016-06-25T10:51:51.282Z,25
2016-06-25T10:52:51.279Z,25
2016-06-25T10:53:51.919Z,25
2016-06-25T10:54:51.914Z,20
2016-06-25T10:55:51.326Z,20
2016-06-25T10:56:52.697Z,20
2016-06-25T10:57:51.934Z,20
2016-06-25T10:58:52.203Z,20
2016-06-25T10:59:50.703Z,20
2016-06-25T11:00:50.721Z,20
2016-06-25T11:01:50.713Z,20
2016-06-25T11:02:52.008Z,20
2016-06-25T11:03:51.411Z,20
2016-06-25T11:04:51.982Z,20
2016-06-25T11:05:52.610Z,20
2016-06-25T11:06:52.594Z,20
2016-06-25T11:07:53.170Z,20
2016-06-25T11:08:50.747Z,20
2016-06-25T11:09:52.682Z,20
2016-06-25T11:10:51.388Z,20
2016-06-25T11:11:51.434Z,20
2016-06-25T11:12:51.403Z,20
2016-06-25T11:13:52.072Z,20
2016-06-25T11:14:52.027Z,20
2016-06-25T11:15:50.168Z,20
2016-06-25T11:16:52.797Z,20
2016-06-25T11:17:52.703Z,20
2016-06-25T11:18:53.653Z,20
2016-06-25T11:19:50.827Z,20
2016-06-25T11:20:53.145Z,25
2016-06-25T11:21:52.065Z,25
2016-06-25T11:22:50.222Z,25
2016-06-25T11:23:52.096Z,25
2016-06-25T11:24:52.058Z,20
2016-06-25T11:25:52.096Z,20
2016-06-25T11:26:52.089Z,20
2016-06-25T11:27:52.991Z,20
2016-06-25T11:28:52.745Z,25
2016-06-25T11:29:52.568Z,25
2016-06-25T11:30:51.496Z,30
2016-06-25T11:31:53.183Z,25
2016-06-25T11:32:52.107Z,25
2016-06-25T11:33:52.121Z,30
2016-06-25T11:34:52.121Z,30
2016-06-25T11:35:52.138Z,30
2016-06-25T11:36:52.170Z,30
2016-06-25T11:37:52.138Z,35
2016-06-25T11:38:54.155Z,30
2016-06-25T11:39:52.819Z,30
2016-06-25T11:40:52.337Z,35
2016-06-25T11:41:52.159Z,35
2016-06-25T11:42:52.199Z,35
2016-06-25T11:43:51.574Z,30
2016-06-25T11:44:52.823Z,30
2016-06-25T11:45:50.967Z,30
2016-06-25T11:46:51.576Z,30
2016-06-25T11:47:50.983Z,30
2016-06-25T11:48:52.220Z,30
2016-06-25T11:49:52.856Z,30
2016-06-25T11:50:52.239Z,30
2016-06-25T11:51:52.240Z,30
2016-06-25T11:52:52.243Z,30
2016-06-25T11:53:51.727Z,30
2016-06-25T11:54:51.645Z,30
2016-06-25T11:55:51.654Z,30
2016-06-25T11:56:52.263Z,25
2016-06-25T11:57:52.257Z,25
2016-06-25T11:58:52.275Z,30
2016-06-25T11:59:52.264Z,30
2016-06-25T12:00:53.238Z,30
2016-06-25T12:01:51.662Z,30
2016-06-25T12:02:53.160Z,30
2016-06-25T12:03:51.753Z,30
2016-06-25T12:04:52.702Z,30
2016-06-25T12:05:52.328Z,30
2016-06-25T12:06:52.931Z,35
2016-06-25T12:07:51.708Z,35
2016-06-25T12:08:51.697Z,35
2016-06-25T12:09:51.063Z,35
2016-06-25T12:10:52.335Z,40
2016-06-25T12:11:52.969Z,40
2016-06-25T12:12:51.872Z,40
2016-06-25T12:13:53.330Z,40
2016-06-25T12:14:52.950Z,40
2016-06-25T12:15:52.456Z,35
2016-06-25T12:16:51.741Z,40
2016-06-25T12:17:51.761Z,40
2016-06-25T12:18:52.361Z,45
2016-06-25T12:19:51.763Z,45
2016-06-25T12:20:51.751Z,45
2016-06-25T12:21:52.393Z,45
2016-06-25T12:22:52.376Z,50
2016-06-25T12:23:52.403Z,50
2016-06-25T12:24:51.782Z,55
2016-06-25T12:25:51.158Z,55
2016-06-25T12:26:53.421Z,55
2016-06-25T12:27:51.786Z,55
2016-06-25T12:28:53.066Z,60
2016-06-25T12:29:52.446Z,60
2016-06-25T12:30:53.064Z,55
2016-06-25T12:31:51.807Z,55
2016-06-25T12:32:51.803Z,50
2016-06-25T12:33:53.110Z,50
2016-06-25T12:34:51.828Z,50
2016-06-25T12:35:53.675Z,50
2016-06-25T12:36:52.469Z,50
2016-06-25T12:37:53.437Z,50
2016-06-25T12:38:52.454Z,55
2016-06-25T12:39:52.486Z,55
2016-06-25T12:40:51.864Z,55
2016-06-25T12:41:53.145Z,55
2016-06-25T12:42:51.863Z,55
2016-06-25T12:43:51.257Z,55
2016-06-25T12:44:52.945Z,55
2016-06-25T12:45:53.123Z,55
2016-06-25T12:46:52.032Z,55
2016-06-25T12:47:53.122Z,55
2016-06-25T12:48:53.895Z,55
2016-06-25T12:49:53.139Z,55
2016-06-25T12:50:53.138Z,55
2016-06-25T12:51:51.303Z,55
2016-06-25T12:52:51.926Z,50
2016-06-25T12:53:52.538Z,50
2016-06-25T12:54:52.547Z,45
2016-06-25T12:55:54.054Z,40
2016-06-25T12:56:51.329Z,35
2016-06-25T12:57:53.177Z,35
2016-06-25T12:58:52.554Z,35
2016-06-25T12:59:52.257Z,35
2016-06-25T13:00:52.636Z,40
2016-06-25T13:01:51.962Z,40
2016-06-25T13:02:51.362Z,45
2016-06-25T13:03:52.634Z,50
2016-06-25T13:04:52.595Z,50
2016-06-25T13:05:51.982Z,50
2016-06-25T13:06:51.980Z,50
2016-06-25T13:07:53.238Z,50
2016-06-25T13:08:53.675Z,50
2016-06-25T13:09:53.328Z,50
2016-06-25T13:10:52.658Z,50
2016-06-25T13:11:53.259Z,45
2016-06-25T13:12:52.626Z,45
2016-06-25T13:13:52.643Z,45
2016-06-25T13:14:52.643Z,45
2016-06-25T13:15:52.682Z,45
2016-06-25T13:16:52.651Z,40
2016-06-25T13:17:52.661Z,40
2016-06-25T13:18:51.422Z,35
2016-06-25T13:19:53.932Z,35
2016-06-25T13:20:52.682Z,35
2016-06-25T13:21:53.289Z,35
2016-06-25T13:22:52.078Z,35
2016-06-25T13:23:53.294Z,35
2016-06-25T13:24:52.092Z,30
2016-06-25T13:25:52.069Z,30
2016-06-25T13:26:52.694Z,30
2016-06-25T13:27:52.698Z,25
2016-06-25T13:28:52.703Z,25
2016-06-25T13:29:52.075Z,25
2016-06-25T13:30:51.646Z,25
2016-06-25T13:31:52.727Z,20
2016-06-25T13:32:52.669Z,20
2016-06-25T13:33:52.131Z,20
2016-06-25T13:34:53.344Z,20
2016-06-25T13:35:51.497Z,20
2016-06-25T13:36:53.566Z,20
2016-06-25T13:37:52.134Z,20
2016-06-25T13:38:52.755Z,20
2016-06-25T13:39:52.506Z,20
2016-06-25T13:40:53.849Z,20
2016-06-25T13:41:54.593Z,20
2016-06-25T13:42:52.160Z,20
2016-06-25T13:43:52.151Z,25
2016-06-25T13:44:52.778Z,25
2016-06-25T13:45:52.154Z,25
2016-06-25T13:46:52.166Z,25
2016-06-25T13:47:52.178Z,30
2016-06-25T13:48:53.418Z,30
2016-06-25T13:49:52.185Z,30
2016-06-25T13:50:52.935Z,30
2016-06-25T13:51:52.195Z,30
2016-06-25T13:52:52.674Z,30
2016-06-25T13:53:52.869Z,30
2016-06-25T13:54:52.191Z,30
2016-06-25T13:55:52.822Z,30
2016-06-25T13:56:52.826Z,25
2016-06-25T13:57:51.615Z,25
2016-06-25T13:58:52.215Z,25
2016-06-25T13:59:52.846Z,25
2016-06-25T14:00:53.461Z,25
2016-06-25T14:01:53.908Z,25
2016-06-25T14:02:53.111Z,25
2016-06-25T14:03:53.353Z,30
2016-06-25T14:04:52.892Z,30
2016-06-25T14:05:52.877Z,30
2016-06-25T14:06:52.242Z,30
2016-06-25T14:07:53.475Z,30
2016-06-25T14:08:52.855Z,30
2016-06-25T14:09:52.272Z,30
2016-06-25T14:10:53.529Z,30
2016-06-25T14:11:53.536Z,30
2016-06-25T14:12:54.143Z,30
2016-06-25T14:13:53.028Z,30
2016-06-25T14:14:54.510Z,30
2016-06-25T14:15:52.307Z,30
2016-06-25T14:16:53.081Z,30
2016-06-25T14:17:53.531Z,30
2016-06-25T14:18:52.930Z,30
2016-06-25T14:19:52.936Z,25
2016-06-25T14:20:52.949Z,25
2016-06-25T14:21:52.945Z,25
2016-06-25T14:22:52.326Z,25
2016-06-25T14:23:53.578Z,25
2016-06-25T14:24:52.941Z,25
2016-06-25T14:25:55.124Z,25
2016-06-25T14:26:52.962Z,30
2016-06-25T14:27:53.627Z,30
2016-06-25T14:28:52.992Z,30
2016-06-25T14:29:52.974Z,30
2016-06-25T14:30:52.971Z,30
2016-06-25T14:31:52.993Z,30
2016-06-25T14:32:52.373Z,30